createdAt,value
2019-01-12T00:12:35.626Z,6.30
2019-01-12T00:27:39.483Z,6.17
2019-01-12T00:42:43.371Z,5.90
2019-01-12T00:57:47.205Z,5.10
2019-01-12T01:12:51.099Z,5.07
2019-01-12T01:27:54.925Z,5.27
2019-01-12T01:42:58.813Z,5.40
2019-01-12T01:58:02.731Z,4.90
2019-01-12T02:13:06.568Z,4.67
2019-01-12T02:28:10.724Z,4.97
2019-01-12T02:43:14.646Z,5.03
2019-01-12T02:58:18.565Z,4.77
2019-01-12T03:13:22.505Z,4.83
2019-01-12T03:28:26.373Z,4.73
2019-01-12T03:43:30.211Z,4.20
2019-01-12T03:58:34.128Z,4.47
2019-01-12T04:13:38.605Z,4.27
2019-01-12T04:28:43.085Z,4.30
2019-01-12T04:43:47.004Z,4.17
2019-01-12T04:58:50.904Z,3.97
2019-01-12T05:13:54.727Z,3.93
2019-01-12T05:29:00.034Z,3.30
2019-01-12T05:44:03.965Z,3.80
2019-01-12T05:59:07.845Z,3.87
2019-01-12T06:14:11.730Z,3.40
2019-01-12T06:29:15.574Z,3.60
2019-01-12T06:44:19.525Z,3.70
2019-01-12T06:59:23.906Z,3.83
2019-01-12T07:14:27.803Z,3.57
2019-01-12T07:29:31.601Z,3.60
2019-01-12T07:44:35.453Z,3.50
2019-01-12T07:59:39.266Z,4.00
2019-01-12T08:14:43.324Z,3.93
2019-01-12T08:29:47.168Z,4.00
2019-01-12T08:44:51.127Z,3.70
2019-01-12T08:59:55.045Z,3.70
2019-01-12T09:14:58.966Z,3.73
2019-01-12T09:30:02.906Z,4.10
2019-01-12T09:45:09.205Z,27.53
2019-01-12T10:00:22.543Z,25.27
2019-01-12T10:15:26.452Z,25.10
2019-01-12T10:30:30.261Z,22.67
2019-01-12T10:45:34.079Z,45.53
2019-01-12T11:00:37.913Z,37.07
2019-01-12T11:15:41.731Z,36.20
2019-01-12T11:30:45.587Z,52.23
2019-01-12T11:45:50.683Z,51.80
2019-01-12T12:00:54.728Z,12.53
2019-01-12T12:15:58.549Z,13.27
2019-01-12T12:31:02.445Z,18.27
2019-01-12T12:46:06.335Z,0.00
2019-01-12T13:01:29.526Z,0.17
2019-01-12T13:16:33.530Z,0.20
2019-01-12T13:31:37.365Z,1.10
2019-01-12T13:46:41.325Z,3.00
2019-01-12T14:01:45.247Z,0.00
2019-01-12T14:16:49.245Z,0.83
2019-01-12T14:31:53.047Z,0.63
2019-01-12T14:46:56.887Z,5.00
2019-01-12T15:02:00.779Z,0.00
2019-01-12T15:17:04.768Z,0.43
2019-01-12T15:32:08.965Z,8.70
2019-01-12T15:47:33.814Z,0.00
2019-01-12T16:02:40.004Z,1.03
2019-01-12T16:17:44.414Z,0.00
2019-01-12T16:32:48.463Z,0.03
2019-01-12T16:47:52.510Z,0.70
2019-01-12T17:02:56.591Z,0.00
2019-01-12T17:18:00.435Z,0.63
2019-01-12T17:33:04.450Z,0.47
2019-01-12T17:48:08.565Z,0.60
2019-01-12T18:03:12.574Z,0.30
2019-01-12T18:18:16.726Z,2.47
2019-01-12T18:33:20.831Z,2.83
2019-01-12T18:48:24.966Z,1.83
2019-01-12T19:05:31.205Z,0.87
2019-01-12T19:20:35.327Z,0.97
2019-01-12T19:35:39.451Z,0.87
2019-01-12T19:50:43.609Z,0.40
2019-01-12T20:05:47.730Z,0.67
2019-01-12T20:20:52.003Z,0.00
2019-01-12T20:35:59.086Z,0.03
2019-01-12T20:51:34.654Z,0.00
2019-01-12T21:06:47.286Z,0.10
2019-01-12T21:21:51.435Z,1.47
2019-01-12T21:36:57.245Z,0.63
2019-01-12T21:52:01.136Z,0.10
2019-01-12T22:07:05.510Z,0.00
2019-01-12T22:22:09.413Z,1.37
2019-01-12T22:37:13.245Z,0.10
2019-01-12T22:52:17.405Z,0.00
2019-01-12T23:07:21.281Z,0.00
2019-01-12T23:22:25.113Z,0.00
2019-01-12T23:37:28.923Z,0.47
2019-01-12T23:52:32.765Z,0.00
